sensor_id;sensor_type;location;lat;lon;timestamp;pressure;altitude;pressure_sealevel;temperature;humidity
19236;BME280;9752;54.270;12.470;2023-04-24T00:02:01;101200.81;;;8.45;100.00
19236;BME280;9752;54.270;12.470;2023-04-24T00:07:05;101189.34;;;8.42;100.00
19236;BME280;9752;54.270;12.470;2023-04-24T00:12:07;101189.88;;;8.37;100.00
19236;BME280;9752;54.270;12.470;2023-04-24T00:17:08;101176.94;;;8.26;100.00
19236;BME280;9752;54.270;12.470;2023-04-24T00:22:11;101156.25;;;8.14;100.00
19236;BME280;9752;54.270;12.470;2023-04-24T00:27:13;101146.22;;;8.07;100.00
19236;BME280;9752;54.270;12.470;2023-04-24T00:32:15;101150.91;;;8.00;100.00
19236;BME280;9752;54.270;12.470;2023-04-24T00:37:19;101134.31;;;7.97;100.00
19236;BME280;9752;54.270;12.470;2023-04-24T00:42:20;101137.91;;;7.99;100.00
19236;BME280;9752;54.270;12.470;2023-04-24T00:47:22;101132.19;;;8.03;100.00
19236;BME280;9752;54.270;12.470;2023-04-24T00:52:26;101150.13;;;8.01;100.00
19236;BME280;9752;54.270;12.470;2023-04-24T00:57:29;101146.66;;;8.01;100.00
19236;BME280;9752;54.270;12.470;2023-04-24T01:02:30;101161.59;;;8.05;100.00
19236;BME280;9752;54.270;12.470;2023-04-24T01:07:36;101164.50;;;7.98;100.00
19236;BME280;9752;54.270;12.470;2023-04-24T01:12:38;101159.22;;;7.96;100.00
19236;BME280;9752;54.270;12.470;2023-04-24T01:17:40;101167.53;;;8.04;100.00
19236;BME280;9752;54.270;12.470;2023-04-24T01:22:43;101167.22;;;7.99;100.00
19236;BME280;9752;54.270;12.470;2023-04-24T01:27:45;101169.75;;;7.88;100.00
19236;BME280;9752;54.270;12.470;2023-04-24T01:32:47;101168.75;;;7.86;100.00
19236;BME280;9752;54.270;12.470;2023-04-24T01:37:50;101186.22;;;7.78;100.00
19236;BME280;9752;54.270;12.470;2023-04-24T01:42:52;101194.44;;;7.62;100.00
19236;BME280;9752;54.270;12.470;2023-04-24T01:47:54;101202.47;;;7.55;100.00
19236;BME280;9752;54.270;12.470;2023-04-24T01:52:59;101200.81;;;7.55;100.00
19236;BME280;9752;54.270;12.470;2023-04-24T01:58:01;101195.56;;;7.43;100.00
19236;BME280;9752;54.270;12.470;2023-04-24T02:03:03;101211.38;;;7.36;100.00
19236;BME280;9752;54.270;12.470;2023-04-24T02:08:06;101225.44;;;7.30;100.00
19236;BME280;9752;54.270;12.470;2023-04-24T02:13:11;101232.28;;;7.29;100.00
19236;BME280;9752;54.270;12.470;2023-04-24T02:18:13;101243.63;;;7.31;100.00
19236;BME280;9752;54.270;12.470;2023-04-24T02:23:17;101258.66;;;7.47;100.00
19236;BME280;9752;54.270;12.470;2023-04-24T02:28:19;101280.63;;;7.74;100.00
19236;BME280;9752;54.270;12.470;2023-04-24T02:33:21;101304.00;;;7.98;100.00
19236;BME280;9752;54.270;12.470;2023-04-24T02:38:24;101316.44;;;8.14;100.00
19236;BME280;9752;54.270;12.470;2023-04-24T02:43:26;101334.00;;;8.18;100.00
19236;BME280;9752;54.270;12.470;2023-04-24T02:48:28;101338.31;;;8.29;100.00
19236;BME280;9752;54.270;12.470;2023-04-24T02:53:31;101347.81;;;8.40;100.00
19236;BME280;9752;54.270;12.470;2023-04-24T02:58:32;101351.03;;;8.48;100.00
19236;BME280;9752;54.270;12.470;2023-04-24T03:03:34;101350.81;;;8.57;100.00
19236;BME280;9752;54.270;12.470;2023-04-24T03:08:37;101347.78;;;8.63;100.00
19236;BME280;9752;54.270;12.470;2023-04-24T03:13:39;101350.06;;;8.70;100.00
19236;BME280;9752;54.270;12.470;2023-04-24T03:18:41;101354.81;;;8.75;100.00
19236;BME280;9752;54.270;12.470;2023-04-24T03:23:45;101359.66;;;8.83;100.00
19236;BME280;9752;54.270;12.470;2023-04-24T03:28:46;101363.06;;;8.93;100.00
19236;BME280;9752;54.270;12.470;2023-04-24T03:33:48;101398.91;;;9.11;100.00
19236;BME280;9752;54.270;12.470;2023-04-24T03:38:51;101402.06;;;9.18;100.00
19236;BME280;9752;54.270;12.470;2023-04-24T03:44:00;101413.19;;;9.29;100.00
19236;BME280;9752;54.270;12.470;2023-04-24T03:49:02;101416.59;;;9.40;100.00
19236;BME280;9752;54.270;12.470;2023-04-24T03:54:10;101413.44;;;9.32;100.00
19236;BME280;9752;54.270;12.470;2023-04-24T03:59:14;101403.97;;;9.21;100.00
19236;BME280;9752;54.270;12.470;2023-04-24T04:04:19;101386.53;;;9.18;100.00
19236;BME280;9752;54.270;12.470;2023-04-24T04:09:22;101382.50;;;9.22;100.00
19236;BME280;9752;54.270;12.470;2023-04-24T04:14:24;101387.66;;;9.22;100.00
19236;BME280;9752;54.270;12.470;2023-04-24T04:19:26;101385.06;;;9.22;100.00
19236;BME280;9752;54.270;12.470;2023-04-24T04:24:29;101401.84;;;9.27;100.00
19236;BME280;9752;54.270;12.470;2023-04-24T04:29:33;101394.88;;;9.26;100.00
19236;BME280;9752;54.270;12.470;2023-04-24T04:34:37;101382.81;;;9.27;100.00
19236;BME280;9752;54.270;12.470;2023-04-24T04:39:43;101395.53;;;9.24;100.00
19236;BME280;9752;54.270;12.470;2023-04-24T04:44:51;101392.72;;;9.21;100.00
19236;BME280;9752;54.270;12.470;2023-04-24T04:49:59;101394.28;;;9.18;100.00
19236;BME280;9752;54.270;12.470;2023-04-24T04:55:04;101398.66;;;9.19;100.00
19236;BME280;9752;54.270;12.470;2023-04-24T05:00:27;101409.38;;;9.24;100.00
19236;BME280;9752;54.270;12.470;2023-04-24T05:05:34;101417.38;;;9.27;100.00
19236;BME280;9752;54.270;12.470;2023-04-24T05:10:37;101427.28;;;9.33;100.00
19236;BME280;9752;54.270;12.470;2023-04-24T05:15:40;101423.47;;;9.51;100.00
19236;BME280;9752;54.270;12.470;2023-04-24T05:20:42;101442.88;;;9.68;100.00
19236;BME280;9752;54.270;12.470;2023-04-24T05:25:46;101439.94;;;9.75;100.00
19236;BME280;9752;54.270;12.470;2023-04-24T05:30:49;101453.91;;;9.89;100.00
19236;BME280;9752;54.270;12.470;2023-04-24T05:35:52;101441.19;;;9.92;100.00
19236;BME280;9752;54.270;12.470;2023-04-24T05:40:56;101434.75;;;9.87;100.00
19236;BME280;9752;54.270;12.470;2023-04-24T05:45:58;101436.00;;;9.92;100.00
19236;BME280;9752;54.270;12.470;2023-04-24T05:50:59;101436.22;;;10.07;100.00
19236;BME280;9752;54.270;12.470;2023-04-24T05:56:03;101451.41;;;10.26;100.00
19236;BME280;9752;54.270;12.470;2023-04-24T06:01:05;101470.00;;;10.44;100.00
19236;BME280;9752;54.270;12.470;2023-04-24T06:06:09;101485.63;;;10.94;100.00
19236;BME280;9752;54.270;12.470;2023-04-24T06:11:12;101490.81;;;11.45;100.00
19236;BME280;9752;54.270;12.470;2023-04-24T06:16:14;101478.16;;;11.63;100.00
19236;BME280;9752;54.270;12.470;2023-04-24T06:21:21;101450.69;;;11.80;100.00
19236;BME280;9752;54.270;12.470;2023-04-24T06:26:24;101405.31;;;11.75;100.00
19236;BME280;9752;54.270;12.470;2023-04-24T06:31:26;101377.34;;;11.97;100.00
19236;BME280;9752;54.270;12.470;2023-04-24T06:36:28;101388.00;;;13.00;100.00
19236;BME280;9752;54.270;12.470;2023-04-24T06:41:32;101351.22;;;13.70;100.00
19236;BME280;9752;54.270;12.470;2023-04-24T06:46:35;101273.63;;;14.13;100.00
19236;BME280;9752;54.270;12.470;2023-04-24T06:51:36;101154.94;;;14.21;100.00
19236;BME280;9752;54.270;12.470;2023-04-24T06:56:39;101024.56;;;14.23;100.00
19236;BME280;9752;54.270;12.470;2023-04-24T07:01:41;100890.31;;;14.16;100.00
19236;BME280;9752;54.270;12.470;2023-04-24T07:06:44;100778.63;;;14.66;100.00
19236;BME280;9752;54.270;12.470;2023-04-24T07:11:48;100670.88;;;15.12;100.00
19236;BME280;9752;54.270;12.470;2023-04-24T07:16:49;100534.06;;;15.33;100.00
19236;BME280;9752;54.270;12.470;2023-04-24T07:21:51;100393.47;;;14.74;100.00
19236;BME280;9752;54.270;12.470;2023-04-24T07:26:55;100302.50;;;14.87;100.00
19236;BME280;9752;54.270;12.470;2023-04-24T07:31:57;100240.50;;;14.31;100.00
19236;BME280;9752;54.270;12.470;2023-04-24T07:36:59;100215.28;;;14.56;100.00
19236;BME280;9752;54.270;12.470;2023-04-24T07:42:02;100172.16;;;15.20;100.00
19236;BME280;9752;54.270;12.470;2023-04-24T07:47:04;100151.00;;;14.85;100.00
19236;BME280;9752;54.270;12.470;2023-04-24T07:52:06;100144.19;;;15.16;100.00
19236;BME280;9752;54.270;12.470;2023-04-24T07:57:09;100147.41;;;14.81;100.00
19236;BME280;9752;54.270;12.470;2023-04-24T08:02:11;100151.94;;;16.02;100.00
19236;BME280;9752;54.270;12.470;2023-04-24T08:07:12;100143.16;;;17.00;100.00
19236;BME280;9752;54.270;12.470;2023-04-24T08:12:16;100154.66;;;17.07;100.00
19236;BME280;9752;54.270;12.470;2023-04-24T08:17:17;100147.22;;;16.54;100.00
19236;BME280;9752;54.270;12.470;2023-04-24T08:22:19;100148.03;;;16.85;100.00
19236;BME280;9752;54.270;12.470;2023-04-24T08:27:23;100163.34;;;16.71;100.00
19236;BME280;9752;54.270;12.470;2023-04-24T08:32:24;100165.44;;;16.17;100.00
19236;BME280;9752;54.270;12.470;2023-04-24T08:37:28;100170.41;;;15.76;100.00
19236;BME280;9752;54.270;12.470;2023-04-24T08:42:31;100162.25;;;15.96;100.00
19236;BME280;9752;54.270;12.470;2023-04-24T08:47:35;100156.41;;;16.73;100.00
19236;BME280;9752;54.270;12.470;2023-04-24T08:52:36;100153.63;;;17.38;100.00
19236;BME280;9752;54.270;12.470;2023-04-24T08:57:40;100159.44;;;16.88;100.00
19236;BME280;9752;54.270;12.470;2023-04-24T09:02:42;100142.09;;;17.31;100.00
19236;BME280;9752;54.270;12.470;2023-04-24T09:07:46;100149.09;;;17.31;100.00
19236;BME280;9752;54.270;12.470;2023-04-24T09:12:52;100143.19;;;17.82;100.00
19236;BME280;9752;54.270;12.470;2023-04-24T09:17:54;100150.09;;;18.20;100.00
19236;BME280;9752;54.270;12.470;2023-04-24T09:22:56;100157.34;;;18.33;100.00
19236;BME280;9752;54.270;12.470;2023-04-24T09:28:02;100148.03;;;18.52;100.00
19236;BME280;9752;54.270;12.470;2023-04-24T09:33:12;100152.16;;;17.92;100.00
19236;BME280;9752;54.270;12.470;2023-04-24T09:38:14;100140.50;;;17.78;100.00
19236;BME280;9752;54.270;12.470;2023-04-24T09:43:17;100147.81;;;17.51;100.00
19236;BME280;9752;54.270;12.470;2023-04-24T09:48:19;100139.78;;;17.44;100.00
19236;BME280;9752;54.270;12.470;2023-04-24T09:53:24;100161.22;;;16.89;100.00
19236;BME280;9752;54.270;12.470;2023-04-24T09:58:28;100155.59;;;16.40;100.00
19236;BME280;9752;54.270;12.470;2023-04-24T10:03:31;100148.59;;;16.74;100.00
19236;BME280;9752;54.270;12.470;2023-04-24T10:08:34;100167.91;;;16.43;100.00
19236;BME280;9752;54.270;12.470;2023-04-24T10:13:37;100176.53;;;16.74;100.00
19236;BME280;9752;54.270;12.470;2023-04-24T10:18:40;100171.53;;;16.16;100.00
19236;BME280;9752;54.270;12.470;2023-04-24T10:23:42;100168.03;;;16.83;100.00
19236;BME280;9752;54.270;12.470;2023-04-24T10:28:47;100180.66;;;16.64;100.00
19236;BME280;9752;54.270;12.470;2023-04-24T10:33:51;100177.31;;;17.05;100.00
19236;BME280;9752;54.270;12.470;2023-04-24T10:38:54;100169.72;;;17.15;100.00
19236;BME280;9752;54.270;12.470;2023-04-24T10:44:06;100170.94;;;17.71;100.00
19236;BME280;9752;54.270;12.470;2023-04-24T10:49:08;100174.63;;;18.22;100.00
19236;BME280;9752;54.270;12.470;2023-04-24T10:54:22;100178.59;;;17.62;100.00
19236;BME280;9752;54.270;12.470;2023-04-24T10:59:26;100174.03;;;17.92;100.00
19236;BME280;9752;54.270;12.470;2023-04-24T11:04:32;100170.09;;;19.14;100.00
19236;BME280;9752;54.270;12.470;2023-04-24T11:09:35;100155.31;;;17.77;100.00
19236;BME280;9752;54.270;12.470;2023-04-24T11:15:01;100147.19;;;18.54;100.00
19236;BME280;9752;54.270;12.470;2023-04-24T11:20:04;100146.94;;;18.88;100.00
19236;BME280;9752;54.270;12.470;2023-04-24T11:25:08;100159.50;;;18.57;100.00
19236;BME280;9752;54.270;12.470;2023-04-24T11:30:17;100163.75;;;17.62;100.00
19236;BME280;9752;54.270;12.470;2023-04-24T11:35:20;100170.00;;;16.91;100.00
19236;BME280;9752;54.270;12.470;2023-04-24T11:40:25;100177.06;;;16.27;100.00
19236;BME280;9752;54.270;12.470;2023-04-24T11:45:28;100181.94;;;15.83;100.00
19236;BME280;9752;54.270;12.470;2023-04-24T11:50:31;100165.88;;;17.01;100.00
19236;BME280;9752;54.270;12.470;2023-04-24T11:55:34;100151.03;;;17.81;100.00
19236;BME280;9752;54.270;12.470;2023-04-24T12:00:37;100159.06;;;18.81;100.00
19236;BME280;9752;54.270;12.470;2023-04-24T12:05:39;100151.38;;;18.92;100.00
19236;BME280;9752;54.270;12.470;2023-04-24T12:10:41;100150.41;;;18.87;100.00
19236;BME280;9752;54.270;12.470;2023-04-24T12:15:44;100146.84;;;18.85;100.00
19236;BME280;9752;54.270;12.470;2023-04-24T12:20:46;100140.47;;;18.72;100.00
19236;BME280;9752;54.270;12.470;2023-04-24T12:25:51;100121.38;;;20.09;100.00
19236;BME280;9752;54.270;12.470;2023-04-24T12:30:54;100121.19;;;19.91;100.00
19236;BME280;9752;54.270;12.470;2023-04-24T12:35:57;100132.22;;;18.99;100.00
19236;BME280;9752;54.270;12.470;2023-04-24T12:41:03;100131.09;;;18.34;100.00
19236;BME280;9752;54.270;12.470;2023-04-24T12:46:06;100128.53;;;18.88;100.00
19236;BME280;9752;54.270;12.470;2023-04-24T12:51:08;100121.03;;;19.16;100.00
19236;BME280;9752;54.270;12.470;2023-04-24T12:56:11;100122.59;;;18.01;100.00
19236;BME280;9752;54.270;12.470;2023-04-24T13:01:14;100128.50;;;17.08;100.00
19236;BME280;9752;54.270;12.470;2023-04-24T13:06:16;100119.22;;;16.85;100.00
19236;BME280;9752;54.270;12.470;2023-04-24T13:11:17;100116.63;;;17.65;100.00
19236;BME280;9752;54.270;12.470;2023-04-24T13:16:21;100115.31;;;17.05;100.00
19236;BME280;9752;54.270;12.470;2023-04-24T13:21:23;100115.69;;;16.84;100.00
19236;BME280;9752;54.270;12.470;2023-04-24T13:26:26;100123.47;;;15.81;100.00
19236;BME280;9752;54.270;12.470;2023-04-24T13:31:29;100132.69;;;15.70;100.00
19236;BME280;9752;54.270;12.470;2023-04-24T13:36:31;100141.63;;;15.19;100.00
19236;BME280;9752;54.270;12.470;2023-04-24T13:41:33;100142.91;;;14.26;100.00
19236;BME280;9752;54.270;12.470;2023-04-24T13:46:36;100150.66;;;14.23;100.00
19236;BME280;9752;54.270;12.470;2023-04-24T13:51:38;100143.38;;;13.90;100.00
19236;BME280;9752;54.270;12.470;2023-04-24T13:56:40;100138.59;;;13.32;100.00
19236;BME280;9752;54.270;12.470;2023-04-24T14:01:43;100124.16;;;13.17;100.00
19236;BME280;9752;54.270;12.470;2023-04-24T14:06:45;100109.75;;;13.27;100.00
19236;BME280;9752;54.270;12.470;2023-04-24T14:11:47;100124.25;;;13.41;100.00
19236;BME280;9752;54.270;12.470;2023-04-24T14:16:50;100122.56;;;13.43;100.00
19236;BME280;9752;54.270;12.470;2023-04-24T14:21:52;100116.94;;;13.55;100.00
19236;BME280;9752;54.270;12.470;2023-04-24T14:26:55;100108.72;;;13.69;100.00
19236;BME280;9752;54.270;12.470;2023-04-24T14:31:59;100111.75;;;13.79;100.00
19236;BME280;9752;54.270;12.470;2023-04-24T14:37:01;100097.84;;;14.56;100.00
19236;BME280;9752;54.270;12.470;2023-04-24T14:42:03;100094.69;;;16.48;100.00
19236;BME280;9752;54.270;12.470;2023-04-24T14:47:06;100077.28;;;19.19;100.00
19236;BME280;9752;54.270;12.470;2023-04-24T14:52:08;100078.38;;;19.35;100.00
19236;BME280;9752;54.270;12.470;2023-04-24T14:57:10;100072.94;;;20.93;100.00
19236;BME280;9752;54.270;12.470;2023-04-24T15:02:13;100078.94;;;20.75;100.00
19236;BME280;9752;54.270;12.470;2023-04-24T15:07:15;100069.72;;;21.44;100.00
19236;BME280;9752;54.270;12.470;2023-04-24T15:12:17;100074.88;;;19.36;100.00
19236;BME280;9752;54.270;12.470;2023-04-24T15:17:20;100082.59;;;17.70;100.00
19236;BME280;9752;54.270;12.470;2023-04-24T15:22:21;100078.91;;;17.59;100.00
19236;BME280;9752;54.270;12.470;2023-04-24T15:27:23;100077.94;;;16.39;100.00
19236;BME280;9752;54.270;12.470;2023-04-24T15:32:26;100075.97;;;15.97;100.00
19236;BME280;9752;54.270;12.470;2023-04-24T15:37:28;100090.88;;;15.39;100.00
19236;BME280;9752;54.270;12.470;2023-04-24T15:42:30;100098.47;;;14.74;100.00
19236;BME280;9752;54.270;12.470;2023-04-24T15:47:33;100090.81;;;14.55;100.00
19236;BME280;9752;54.270;12.470;2023-04-24T15:52:35;100099.94;;;14.40;100.00
19236;BME280;9752;54.270;12.470;2023-04-24T15:57:37;100093.72;;;14.62;100.00
19236;BME280;9752;54.270;12.470;2023-04-24T16:02:40;100090.78;;;15.36;100.00
19236;BME280;9752;54.270;12.470;2023-04-24T16:07:42;100080.06;;;18.19;100.00
19236;BME280;9752;54.270;12.470;2023-04-24T16:12:43;100075.56;;;18.13;100.00
19236;BME280;9752;54.270;12.470;2023-04-24T16:17:48;100075.13;;;17.88;100.00
19236;BME280;9752;54.270;12.470;2023-04-24T16:22:50;100081.97;;;19.43;100.00
19236;BME280;9752;54.270;12.470;2023-04-24T16:27:52;100088.41;;;19.67;100.00
19236;BME280;9752;54.270;12.470;2023-04-24T16:32:55;100100.31;;;18.79;100.00
19236;BME280;9752;54.270;12.470;2023-04-24T16:37:56;100080.16;;;20.11;99.36
19236;BME280;9752;54.270;12.470;2023-04-24T16:42:58;100116.09;;;17.01;100.00
19236;BME280;9752;54.270;12.470;2023-04-24T16:48:01;100104.91;;;17.90;100.00
19236;BME280;9752;54.270;12.470;2023-04-24T16:53:03;100125.56;;;16.94;100.00
19236;BME280;9752;54.270;12.470;2023-04-24T16:58:05;100109.63;;;18.08;100.00
19236;BME280;9752;54.270;12.470;2023-04-24T17:03:08;100132.66;;;15.68;100.00
19236;BME280;9752;54.270;12.470;2023-04-24T17:08:10;100128.50;;;14.61;100.00
19236;BME280;9752;54.270;12.470;2023-04-24T17:13:11;100134.06;;;13.73;100.00
19236;BME280;9752;54.270;12.470;2023-04-24T17:18:15;100129.97;;;13.33;100.00
19236;BME280;9752;54.270;12.470;2023-04-24T17:23:17;100142.47;;;12.98;100.00
19236;BME280;9752;54.270;12.470;2023-04-24T17:28:24;100154.84;;;12.82;100.00
19236;BME280;9752;54.270;12.470;2023-04-24T17:33:29;100146.75;;;12.96;100.00
19236;BME280;9752;54.270;12.470;2023-04-24T17:38:31;100150.66;;;12.86;100.00
19236;BME280;9752;54.270;12.470;2023-04-24T17:43:33;100144.13;;;12.75;100.00
19236;BME280;9752;54.270;12.470;2023-04-24T17:48:36;100155.28;;;12.30;100.00
19236;BME280;9752;54.270;12.470;2023-04-24T17:53:38;100162.72;;;12.01;100.00
19236;BME280;9752;54.270;12.470;2023-04-24T17:58:41;100153.75;;;11.95;100.00
19236;BME280;9752;54.270;12.470;2023-04-24T18:03:44;100165.25;;;11.82;100.00
19236;BME280;9752;54.270;12.470;2023-04-24T18:08:45;100165.06;;;11.77;100.00
19236;BME280;9752;54.270;12.470;2023-04-24T18:13:47;100170.69;;;11.67;100.00
19236;BME280;9752;54.270;12.470;2023-04-24T18:18:51;100188.53;;;11.59;100.00
19236;BME280;9752;54.270;12.470;2023-04-24T18:23:53;100179.63;;;11.54;100.00
19236;BME280;9752;54.270;12.470;2023-04-24T18:28:59;100185.41;;;11.48;100.00
19236;BME280;9752;54.270;12.470;2023-04-24T18:34:03;100189.84;;;11.51;100.00
19236;BME280;9752;54.270;12.470;2023-04-24T18:39:04;100189.72;;;11.48;100.00
19236;BME280;9752;54.270;12.470;2023-04-24T18:44:06;100226.81;;;11.45;100.00
19236;BME280;9752;54.270;12.470;2023-04-24T18:49:09;100258.94;;;9.62;100.00
19236;BME280;9752;54.270;12.470;2023-04-24T18:54:11;100268.19;;;8.53;100.00
19236;BME280;9752;54.270;12.470;2023-04-24T18:59:13;100290.81;;;8.29;100.00
19236;BME280;9752;54.270;12.470;2023-04-24T19:04:16;100298.84;;;8.05;100.00
19236;BME280;9752;54.270;12.470;2023-04-24T19:09:19;100304.63;;;8.01;100.00
19236;BME280;9752;54.270;12.470;2023-04-24T19:14:21;100352.47;;;8.09;100.00
19236;BME280;9752;54.270;12.470;2023-04-24T19:19:24;100400.78;;;8.10;100.00
19236;BME280;9752;54.270;12.470;2023-04-24T19:24:28;100503.50;;;8.01;100.00
19236;BME280;9752;54.270;12.470;2023-04-24T19:29:30;100534.88;;;7.94;100.00
19236;BME280;9752;54.270;12.470;2023-04-24T19:34:33;100587.13;;;7.90;100.00
19236;BME280;9752;54.270;12.470;2023-04-24T19:39:35;100633.19;;;7.84;100.00
19236;BME280;9752;54.270;12.470;2023-04-24T19:44:37;100679.84;;;7.61;100.00
19236;BME280;9752;54.270;12.470;2023-04-24T19:49:40;100675.69;;;7.63;100.00
19236;BME280;9752;54.270;12.470;2023-04-24T19:54:42;100690.28;;;7.63;100.00
19236;BME280;9752;54.270;12.470;2023-04-24T19:59:43;100686.13;;;7.65;100.00
19236;BME280;9752;54.270;12.470;2023-04-24T20:04:46;100681.06;;;7.67;100.00
19236;BME280;9752;54.270;12.470;2023-04-24T20:09:48;100669.16;;;7.69;100.00
19236;BME280;9752;54.270;12.470;2023-04-24T20:14:50;100650.44;;;7.59;100.00
19236;BME280;9752;54.270;12.470;2023-04-24T20:19:53;100639.59;;;7.52;100.00
19236;BME280;9752;54.270;12.470;2023-04-24T20:24:55;100617.03;;;7.49;100.00
19236;BME280;9752;54.270;12.470;2023-04-24T20:29:57;100594.97;;;7.41;100.00
19236;BME280;9752;54.270;12.470;2023-04-24T20:35:00;100587.28;;;7.29;100.00
19236;BME280;9752;54.270;12.470;2023-04-24T20:40:03;100583.22;;;7.33;100.00
19236;BME280;9752;54.270;12.470;2023-04-24T20:45:06;100576.16;;;7.30;100.00
19236;BME280;9752;54.270;12.470;2023-04-24T20:50:10;100571.78;;;7.29;100.00
19236;BME280;9752;54.270;12.470;2023-04-24T20:55:12;100572.78;;;7.31;100.00
19236;BME280;9752;54.270;12.470;2023-04-24T21:00:15;100572.31;;;7.37;100.00
19236;BME280;9752;54.270;12.470;2023-04-24T21:05:18;100577.13;;;7.44;100.00
19236;BME280;9752;54.270;12.470;2023-04-24T21:10:19;100579.72;;;7.44;100.00
19236;BME280;9752;54.270;12.470;2023-04-24T21:15:21;100594.28;;;7.43;100.00
19236;BME280;9752;54.270;12.470;2023-04-24T21:20:24;100600.94;;;7.40;100.00
19236;BME280;9752;54.270;12.470;2023-04-24T21:25:26;100603.59;;;7.41;100.00
19236;BME280;9752;54.270;12.470;2023-04-24T21:30:29;100613.03;;;7.41;100.00
19236;BME280;9752;54.270;12.470;2023-04-24T21:35:32;100615.38;;;7.38;100.00
19236;BME280;9752;54.270;12.470;2023-04-24T21:40:34;100608.44;;;7.37;100.00
19236;BME280;9752;54.270;12.470;2023-04-24T21:45:36;100629.56;;;7.31;100.00
19236;BME280;9752;54.270;12.470;2023-04-24T21:50:39;100634.41;;;7.27;100.00
19236;BME280;9752;54.270;12.470;2023-04-24T21:55:40;100639.00;;;7.19;100.00
19236;BME280;9752;54.270;12.470;2023-04-24T22:00:42;100655.28;;;7.18;100.00
19236;BME280;9752;54.270;12.470;2023-04-24T22:05:45;100680.06;;;7.16;100.00
19236;BME280;9752;54.270;12.470;2023-04-24T22:10:47;100702.94;;;7.11;100.00
19236;BME280;9752;54.270;12.470;2023-04-24T22:15:49;100718.53;;;7.13;100.00
19236;BME280;9752;54.270;12.470;2023-04-24T22:20:52;100735.94;;;7.15;100.00
19236;BME280;9752;54.270;12.470;2023-04-24T22:25:54;100742.28;;;7.20;100.00
19236;BME280;9752;54.270;12.470;2023-04-24T22:30:55;100763.28;;;7.25;100.00
19236;BME280;9752;54.270;12.470;2023-04-24T22:35:59;100782.34;;;7.27;100.00
19236;BME280;9752;54.270;12.470;2023-04-24T22:41:01;100800.41;;;7.27;100.00
19236;BME280;9752;54.270;12.470;2023-04-24T22:46:03;100816.00;;;7.29;100.00
19236;BME280;9752;54.270;12.470;2023-04-24T22:51:06;100838.31;;;7.28;100.00
19236;BME280;9752;54.270;12.470;2023-04-24T22:56:08;100854.78;;;7.30;100.00
19236;BME280;9752;54.270;12.470;2023-04-24T23:01:09;100876.47;;;7.32;100.00
19236;BME280;9752;54.270;12.470;2023-04-24T23:06:12;100891.47;;;7.38;100.00
19236;BME280;9752;54.270;12.470;2023-04-24T23:11:14;100904.63;;;7.41;100.00
19236;BME280;9752;54.270;12.470;2023-04-24T23:16:17;100924.38;;;7.40;100.00
19236;BME280;9752;54.270;12.470;2023-04-24T23:21:20;100933.56;;;7.37;100.00
19236;BME280;9752;54.270;12.470;2023-04-24T23:26:22;100957.69;;;7.37;100.00
19236;BME280;9752;54.270;12.470;2023-04-24T23:31:23;100979.59;;;7.42;100.00
19236;BME280;9752;54.270;12.470;2023-04-24T23:36:26;100982.47;;;7.35;100.00
19236;BME280;9752;54.270;12.470;2023-04-24T23:41:28;101003.38;;;7.38;100.00
19236;BME280;9752;54.270;12.470;2023-04-24T23:46:30;101015.25;;;7.36;100.00
19236;BME280;9752;54.270;12.470;2023-04-24T23:51:33;101038.78;;;7.29;100.00
19236;BME280;9752;54.270;12.470;2023-04-24T23:56:35;101058.44;;;7.17;100.00
